sensor_id;sensor_type;location;lat;lon;timestamp;pressure;altitude;pressure_sealevel;temperature;humidity
31005;BME280;17676;52.254;4.490;2023-06-14T00:01:38;101423.09;;;20.07;100.00
31005;BME280;17676;52.254;4.490;2023-06-14T00:04:04;101430.97;;;20.20;100.00
31005;BME280;17676;52.254;4.490;2023-06-14T00:06:34;101426.63;;;20.24;100.00
31005;BME280;17676;52.254;4.490;2023-06-14T00:08:59;101441.31;;;20.35;100.00
31005;BME280;17676;52.254;4.490;2023-06-14T00:11:25;101441.03;;;20.31;100.00
31005;BME280;17676;52.254;4.490;2023-06-14T00:13:52;101432.53;;;20.11;100.00
31005;BME280;17676;52.254;4.490;2023-06-14T00:16:17;101422.72;;;20.20;100.00
31005;BME280;17676;52.254;4.490;2023-06-14T00:18:45;101435.38;;;20.21;100.00
31005;BME280;17676;52.254;4.490;2023-06-14T00:21:11;101430.72;;;20.22;100.00
31005;BME280;17676;52.254;4.490;2023-06-14T00:23:37;101427.09;;;20.16;100.00
31005;BME280;17676;52.254;4.490;2023-06-14T00:26:03;101435.44;;;20.05;100.00
31005;BME280;17676;52.254;4.490;2023-06-14T00:28:29;101437.09;;;20.06;100.00
31005;BME280;17676;52.254;4.490;2023-06-14T00:30:54;101437.94;;;20.06;100.00
31005;BME280;17676;52.254;4.490;2023-06-14T00:33:20;101428.56;;;20.02;100.00
31005;BME280;17676;52.254;4.490;2023-06-14T00:35:46;101443.59;;;20.16;100.00
31005;BME280;17676;52.254;4.490;2023-06-14T00:38:12;101433.09;;;20.13;100.00
31005;BME280;17676;52.254;4.490;2023-06-14T00:40:38;101433.25;;;20.07;100.00
31005;BME280;17676;52.254;4.490;2023-06-14T00:43:03;101444.25;;;20.07;100.00
31005;BME280;17676;52.254;4.490;2023-06-14T00:45:29;101437.78;;;19.96;100.00
31005;BME280;17676;52.254;4.490;2023-06-14T00:47:56;101438.94;;;20.00;100.00
31005;BME280;17676;52.254;4.490;2023-06-14T00:50:23;101434.78;;;19.98;100.00
31005;BME280;17676;52.254;4.490;2023-06-14T00:52:49;101436.66;;;19.92;100.00
31005;BME280;17676;52.254;4.490;2023-06-14T00:55:15;101442.66;;;19.89;100.00
31005;BME280;17676;52.254;4.490;2023-06-14T00:57:41;101451.78;;;19.95;100.00
31005;BME280;17676;52.254;4.490;2023-06-14T01:00:07;101439.91;;;19.89;100.00
31005;BME280;17676;52.254;4.490;2023-06-14T01:02:38;101447.06;;;19.90;100.00
31005;BME280;17676;52.254;4.490;2023-06-14T01:05:05;101446.94;;;19.80;100.00
31005;BME280;17676;52.254;4.490;2023-06-14T01:07:50;101437.03;;;19.79;100.00
31005;BME280;17676;52.254;4.490;2023-06-14T01:15:44;101444.06;;;19.70;100.00
31005;BME280;17676;52.254;4.490;2023-06-14T01:18:10;101442.34;;;19.86;100.00
31005;BME280;17676;52.254;4.490;2023-06-14T01:20:43;101438.63;;;19.75;100.00
31005;BME280;17676;52.254;4.490;2023-06-14T01:23:12;101446.81;;;19.70;100.00
31005;BME280;17676;52.254;4.490;2023-06-14T01:25:38;101434.00;;;19.59;100.00
31005;BME280;17676;52.254;4.490;2023-06-14T01:28:05;101434.06;;;19.64;100.00
31005;BME280;17676;52.254;4.490;2023-06-14T01:30:40;101436.88;;;19.69;100.00
31005;BME280;17676;52.254;4.490;2023-06-14T01:33:13;101440.72;;;19.68;100.00
31005;BME280;17676;52.254;4.490;2023-06-14T01:35:43;101444.25;;;19.64;100.00
31005;BME280;17676;52.254;4.490;2023-06-14T01:38:09;101439.06;;;19.67;100.00
31005;BME280;17676;52.254;4.490;2023-06-14T01:40:35;101440.59;;;19.58;100.00
31005;BME280;17676;52.254;4.490;2023-06-14T01:43:02;101450.47;;;19.59;100.00
31005;BME280;17676;52.254;4.490;2023-06-14T01:45:29;101453.53;;;19.63;100.00
31005;BME280;17676;52.254;4.490;2023-06-14T01:47:55;101452.91;;;19.56;100.00
31005;BME280;17676;52.254;4.490;2023-06-14T01:50:21;101449.81;;;19.52;100.00
31005;BME280;17676;52.254;4.490;2023-06-14T01:52:47;101454.41;;;19.47;100.00
31005;BME280;17676;52.254;4.490;2023-06-14T01:55:12;101452.50;;;19.47;100.00
31005;BME280;17676;52.254;4.490;2023-06-14T01:57:38;101444.44;;;19.41;100.00
31005;BME280;17676;52.254;4.490;2023-06-14T02:00:04;101451.50;;;19.37;100.00
31005;BME280;17676;52.254;4.490;2023-06-14T02:02:33;101453.34;;;19.31;100.00
31005;BME280;17676;52.254;4.490;2023-06-14T02:04:59;101435.00;;;19.20;100.00
31005;BME280;17676;52.254;4.490;2023-06-14T02:07:24;101441.59;;;19.19;100.00
31005;BME280;17676;52.254;4.490;2023-06-14T02:09:51;101435.41;;;19.12;100.00
31005;BME280;17676;52.254;4.490;2023-06-14T02:12:16;101429.78;;;19.02;100.00
31005;BME280;17676;52.254;4.490;2023-06-14T02:14:42;101436.38;;;19.01;100.00
31005;BME280;17676;52.254;4.490;2023-06-14T02:17:07;101429.19;;;19.00;100.00
31005;BME280;17676;52.254;4.490;2023-06-14T02:19:33;101432.34;;;18.92;100.00
31005;BME280;17676;52.254;4.490;2023-06-14T02:22:00;101428.94;;;18.85;100.00
31005;BME280;17676;52.254;4.490;2023-06-14T02:24:26;101428.44;;;18.88;100.00
31005;BME280;17676;52.254;4.490;2023-06-14T02:26:52;101441.50;;;18.81;100.00
31005;BME280;17676;52.254;4.490;2023-06-14T02:29:18;101439.25;;;18.78;100.00
31005;BME280;17676;52.254;4.490;2023-06-14T02:31:43;101439.25;;;18.78;100.00
31005;BME280;17676;52.254;4.490;2023-06-14T02:34:09;101435.34;;;18.74;100.00
31005;BME280;17676;52.254;4.490;2023-06-14T02:36:35;101437.22;;;18.73;100.00
31005;BME280;17676;52.254;4.490;2023-06-14T02:39:07;101453.03;;;18.83;100.00
31005;BME280;17676;52.254;4.490;2023-06-14T02:41:34;101441.13;;;18.61;100.00
31005;BME280;17676;52.254;4.490;2023-06-14T02:44:00;101441.06;;;18.72;100.00
31005;BME280;17676;52.254;4.490;2023-06-14T02:46:25;101431.81;;;18.62;100.00
31005;BME280;17676;52.254;4.490;2023-06-14T02:48:51;101440.13;;;18.67;100.00
31005;BME280;17676;52.254;4.490;2023-06-14T02:51:17;101440.22;;;18.72;100.00
31005;BME280;17676;52.254;4.490;2023-06-14T02:53:42;101448.19;;;18.73;100.00
31005;BME280;17676;52.254;4.490;2023-06-14T02:56:09;101461.66;;;18.75;100.00
31005;BME280;17676;52.254;4.490;2023-06-14T02:58:36;101451.00;;;18.62;100.00
31005;BME280;17676;52.254;4.490;2023-06-14T03:01:02;101439.84;;;18.52;100.00
31005;BME280;17676;52.254;4.490;2023-06-14T03:03:29;101444.84;;;18.55;100.00
31005;BME280;17676;52.254;4.490;2023-06-14T03:05:55;101450.81;;;18.52;100.00
31005;BME280;17676;52.254;4.490;2023-06-14T03:08:21;101454.63;;;18.51;100.00
31005;BME280;17676;52.254;4.490;2023-06-14T03:10:52;101467.03;;;18.53;100.00
31005;BME280;17676;52.254;4.490;2023-06-14T03:13:18;101473.13;;;18.72;100.00
31005;BME280;17676;52.254;4.490;2023-06-14T03:15:46;101455.25;;;18.53;100.00
31005;BME280;17676;52.254;4.490;2023-06-14T03:18:16;101452.97;;;18.50;100.00
31005;BME280;17676;52.254;4.490;2023-06-14T03:20:42;101461.78;;;18.52;100.00
31005;BME280;17676;52.254;4.490;2023-06-14T03:23:11;101469.44;;;18.50;100.00
31005;BME280;17676;52.254;4.490;2023-06-14T03:25:37;101468.34;;;18.51;100.00
31005;BME280;17676;52.254;4.490;2023-06-14T03:28:06;101478.91;;;18.59;100.00
31005;BME280;17676;52.254;4.490;2023-06-14T03:30:37;101473.25;;;18.49;100.00
31005;BME280;17676;52.254;4.490;2023-06-14T03:33:03;101472.56;;;18.42;100.00
31005;BME280;17676;52.254;4.490;2023-06-14T03:35:30;101489.16;;;18.35;100.00
31005;BME280;17676;52.254;4.490;2023-06-14T03:37:56;101489.25;;;18.29;100.00
31005;BME280;17676;52.254;4.490;2023-06-14T03:40:22;101481.19;;;18.22;100.00
31005;BME280;17676;52.254;4.490;2023-06-14T03:42:53;101492.59;;;18.31;100.00
31005;BME280;17676;52.254;4.490;2023-06-14T03:45:18;101497.97;;;18.26;100.00
31005;BME280;17676;52.254;4.490;2023-06-14T03:47:48;101485.91;;;18.27;100.00
31005;BME280;17676;52.254;4.490;2023-06-14T03:50:14;101497.94;;;18.37;100.00
31005;BME280;17676;52.254;4.490;2023-06-14T03:52:40;101490.66;;;18.43;100.00
31005;BME280;17676;52.254;4.490;2023-06-14T03:55:08;101489.50;;;18.39;100.00
31005;BME280;17676;52.254;4.490;2023-06-14T03:57:34;101478.63;;;18.32;100.00
31005;BME280;17676;52.254;4.490;2023-06-14T03:59:59;101491.16;;;18.40;100.00
31005;BME280;17676;52.254;4.490;2023-06-14T04:02:25;101479.00;;;18.36;100.00
31005;BME280;17676;52.254;4.490;2023-06-14T04:04:51;101491.28;;;18.45;100.00
31005;BME280;17676;52.254;4.490;2023-06-14T04:07:19;101501.63;;;18.43;100.00
31005;BME280;17676;52.254;4.490;2023-06-14T04:09:45;101505.47;;;18.42;100.00
31005;BME280;17676;52.254;4.490;2023-06-14T04:12:11;101508.44;;;18.40;100.00
31005;BME280;17676;52.254;4.490;2023-06-14T04:14:37;101498.97;;;18.48;100.00
31005;BME280;17676;52.254;4.490;2023-06-14T04:17:03;101510.94;;;18.42;100.00
31005;BME280;17676;52.254;4.490;2023-06-14T04:19:29;101513.31;;;18.50;100.00
31005;BME280;17676;52.254;4.490;2023-06-14T04:21:55;101510.16;;;18.58;100.00
31005;BME280;17676;52.254;4.490;2023-06-14T04:24:21;101521.84;;;18.65;100.00
31005;BME280;17676;52.254;4.490;2023-06-14T04:26:48;101502.53;;;18.60;100.00
31005;BME280;17676;52.254;4.490;2023-06-14T04:29:14;101512.66;;;18.59;100.00
31005;BME280;17676;52.254;4.490;2023-06-14T04:31:45;101518.69;;;18.73;100.00
31005;BME280;17676;52.254;4.490;2023-06-14T04:34:11;101520.22;;;18.80;100.00
31005;BME280;17676;52.254;4.490;2023-06-14T04:36:42;101509.09;;;18.87;100.00
31005;BME280;17676;52.254;4.490;2023-06-14T04:39:17;101507.91;;;18.83;100.00
31005;BME280;17676;52.254;4.490;2023-06-14T04:41:43;101510.44;;;19.01;100.00
31005;BME280;17676;52.254;4.490;2023-06-14T04:44:09;101522.09;;;19.08;100.00
31005;BME280;17676;52.254;4.490;2023-06-14T04:46:35;101513.75;;;19.03;100.00
31005;BME280;17676;52.254;4.490;2023-06-14T04:49:11;101511.09;;;19.08;100.00
31005;BME280;17676;52.254;4.490;2023-06-14T04:51:39;101521.69;;;19.16;100.00
31005;BME280;17676;52.254;4.490;2023-06-14T04:54:05;101520.69;;;19.22;100.00
31005;BME280;17676;52.254;4.490;2023-06-14T04:56:35;101524.06;;;19.41;100.00
31005;BME280;17676;52.254;4.490;2023-06-14T04:59:02;101524.31;;;19.39;100.00
31005;BME280;17676;52.254;4.490;2023-06-14T05:01:30;101518.16;;;19.32;100.00
31005;BME280;17676;52.254;4.490;2023-06-14T05:03:57;101525.41;;;19.38;100.00
31005;BME280;17676;52.254;4.490;2023-06-14T05:06:22;101529.38;;;19.47;100.00
31005;BME280;17676;52.254;4.490;2023-06-14T05:08:49;101532.63;;;19.44;100.00
31005;BME280;17676;52.254;4.490;2023-06-14T05:11:14;101523.47;;;19.55;100.00
31005;BME280;17676;52.254;4.490;2023-06-14T05:13:42;101525.19;;;19.61;100.00
31005;BME280;17676;52.254;4.490;2023-06-14T05:16:08;101531.53;;;19.78;100.00
31005;BME280;17676;52.254;4.490;2023-06-14T05:18:34;101545.72;;;20.08;100.00
31005;BME280;17676;52.254;4.490;2023-06-14T05:21:01;101539.25;;;20.14;100.00
31005;BME280;17676;52.254;4.490;2023-06-14T05:23:27;101540.47;;;20.23;100.00
31005;BME280;17676;52.254;4.490;2023-06-14T05:25:53;101542.13;;;20.24;100.00
31005;BME280;17676;52.254;4.490;2023-06-14T05:28:18;101528.44;;;19.91;100.00
31005;BME280;17676;52.254;4.490;2023-06-14T05:30:44;101540.06;;;20.15;100.00
31005;BME280;17676;52.254;4.490;2023-06-14T05:33:10;101543.13;;;20.40;100.00
31005;BME280;17676;52.254;4.490;2023-06-14T05:35:36;101543.31;;;20.33;100.00
31005;BME280;17676;52.254;4.490;2023-06-14T05:38:03;101560.53;;;20.45;100.00
31005;BME280;17676;52.254;4.490;2023-06-14T05:40:28;101531.97;;;20.46;100.00
31005;BME280;17676;52.254;4.490;2023-06-14T05:42:54;101542.38;;;20.44;100.00
31005;BME280;17676;52.254;4.490;2023-06-14T05:45:20;101558.69;;;20.72;100.00
31005;BME280;17676;52.254;4.490;2023-06-14T05:47:46;101549.47;;;20.83;100.00
31005;BME280;17676;52.254;4.490;2023-06-14T05:50:11;101544.28;;;20.65;100.00
31005;BME280;17676;52.254;4.490;2023-06-14T05:52:37;101552.88;;;20.69;100.00
31005;BME280;17676;52.254;4.490;2023-06-14T05:55:04;101543.94;;;20.83;100.00
31005;BME280;17676;52.254;4.490;2023-06-14T05:57:29;101558.72;;;20.99;100.00
31005;BME280;17676;52.254;4.490;2023-06-14T05:59:55;101559.19;;;21.17;100.00
31005;BME280;17676;52.254;4.490;2023-06-14T06:02:20;101558.69;;;21.20;100.00
31005;BME280;17676;52.254;4.490;2023-06-14T06:04:46;101562.25;;;21.21;100.00
31005;BME280;17676;52.254;4.490;2023-06-14T06:07:12;101563.06;;;21.16;100.00
31005;BME280;17676;52.254;4.490;2023-06-14T06:09:37;101577.53;;;21.33;100.00
31005;BME280;17676;52.254;4.490;2023-06-14T06:12:05;101568.41;;;21.59;100.00
31005;BME280;17676;52.254;4.490;2023-06-14T06:14:32;101566.72;;;21.27;100.00
31005;BME280;17676;52.254;4.490;2023-06-14T06:16:57;101567.56;;;21.27;100.00
31005;BME280;17676;52.254;4.490;2023-06-14T06:19:23;101567.31;;;21.60;100.00
31005;BME280;17676;52.254;4.490;2023-06-14T06:21:49;101558.47;;;21.90;100.00
31005;BME280;17676;52.254;4.490;2023-06-14T06:24:15;101568.81;;;22.14;100.00
31005;BME280;17676;52.254;4.490;2023-06-14T06:26:41;101569.47;;;22.31;100.00
31005;BME280;17676;52.254;4.490;2023-06-14T06:29:07;101573.31;;;22.30;100.00
31005;BME280;17676;52.254;4.490;2023-06-14T06:31:33;101580.56;;;22.36;100.00
31005;BME280;17676;52.254;4.490;2023-06-14T06:33:59;101578.34;;;22.43;100.00
31005;BME280;17676;52.254;4.490;2023-06-14T06:36:25;101581.34;;;22.88;100.00
31005;BME280;17676;52.254;4.490;2023-06-14T06:38:50;101586.19;;;23.68;100.00
31005;BME280;17676;52.254;4.490;2023-06-14T06:41:16;101593.00;;;24.46;100.00
31005;BME280;17676;52.254;4.490;2023-06-14T06:43:41;101600.13;;;24.77;100.00
31005;BME280;17676;52.254;4.490;2023-06-14T06:46:08;101607.25;;;25.75;100.00
31005;BME280;17676;52.254;4.490;2023-06-14T06:48:33;101602.34;;;26.29;97.38
31005;BME280;17676;52.254;4.490;2023-06-14T06:50:59;101605.44;;;27.72;92.84
31005;BME280;17676;52.254;4.490;2023-06-14T06:53:25;101607.25;;;28.27;87.67
31005;BME280;17676;52.254;4.490;2023-06-14T06:55:51;101629.91;;;29.20;82.22
31005;BME280;17676;52.254;4.490;2023-06-14T06:58:17;101630.63;;;28.45;82.88
31005;BME280;17676;52.254;4.490;2023-06-14T07:00:43;101613.25;;;28.34;85.86
31005;BME280;17676;52.254;4.490;2023-06-14T07:03:11;101624.09;;;28.36;86.46
31005;BME280;17676;52.254;4.490;2023-06-14T07:05:37;101630.72;;;28.53;82.98
31005;BME280;17676;52.254;4.490;2023-06-14T07:08:02;101620.66;;;29.33;81.62
31005;BME280;17676;52.254;4.490;2023-06-14T07:10:28;101641.03;;;29.69;81.23
31005;BME280;17676;52.254;4.490;2023-06-14T07:12:53;101647.03;;;30.20;77.40
31005;BME280;17676;52.254;4.490;2023-06-14T07:15:19;101629.41;;;30.50;76.66
31005;BME280;17676;52.254;4.490;2023-06-14T07:17:48;101633.25;;;30.63;76.42
31005;BME280;17676;52.254;4.490;2023-06-14T07:20:13;101647.66;;;30.78;73.86
31005;BME280;17676;52.254;4.490;2023-06-14T07:22:43;101631.03;;;31.64;70.36
31005;BME280;17676;52.254;4.490;2023-06-14T07:25:12;101637.13;;;30.75;72.09
31005;BME280;17676;52.254;4.490;2023-06-14T07:27:42;101632.78;;;29.64;86.51
31005;BME280;17676;52.254;4.490;2023-06-14T07:30:08;101643.31;;;30.33;84.00
31005;BME280;17676;52.254;4.490;2023-06-14T07:32:34;101635.19;;;30.01;75.79
31005;BME280;17676;52.254;4.490;2023-06-14T07:35:00;101645.38;;;30.80;69.28
31005;BME280;17676;52.254;4.490;2023-06-14T07:37:25;101649.28;;;30.79;72.10
31005;BME280;17676;52.254;4.490;2023-06-14T07:39:51;101637.38;;;31.04;73.41
31005;BME280;17676;52.254;4.490;2023-06-14T07:42:16;101651.44;;;30.43;70.95
31005;BME280;17676;52.254;4.490;2023-06-14T07:44:42;101648.81;;;30.16;74.09
31005;BME280;17676;52.254;4.490;2023-06-14T07:47:09;101638.03;;;30.62;76.44
31005;BME280;17676;52.254;4.490;2023-06-14T07:49:34;101649.06;;;31.06;77.42
31005;BME280;17676;52.254;4.490;2023-06-14T07:52:00;101663.81;;;31.46;71.90
31005;BME280;17676;52.254;4.490;2023-06-14T07:54:26;101655.38;;;32.23;71.89
31005;BME280;17676;52.254;4.490;2023-06-14T07:57:11;101653.78;;;31.54;69.85
31005;BME280;17676;52.254;4.490;2023-06-14T07:59:37;101654.50;;;31.11;77.32
31005;BME280;17676;52.254;4.490;2023-06-14T08:02:03;101657.38;;;32.39;75.59
31005;BME280;17676;52.254;4.490;2023-06-14T08:04:29;101675.19;;;32.35;69.92
31005;BME280;17676;52.254;4.490;2023-06-14T08:06:55;101666.28;;;31.56;69.81
31005;BME280;17676;52.254;4.490;2023-06-14T08:09:21;101659.59;;;31.09;73.20
31005;BME280;17676;52.254;4.490;2023-06-14T08:11:47;101676.06;;;31.19;67.55
31005;BME280;17676;52.254;4.490;2023-06-14T08:14:13;101672.53;;;32.13;64.57
31005;BME280;17676;52.254;4.490;2023-06-14T08:16:38;101665.47;;;31.64;69.05
31005;BME280;17676;52.254;4.490;2023-06-14T08:19:04;101656.91;;;31.61;68.74
31005;BME280;17676;52.254;4.490;2023-06-14T08:21:30;101653.31;;;31.77;68.19
31005;BME280;17676;52.254;4.490;2023-06-14T08:23:58;101665.97;;;31.41;72.21
31005;BME280;17676;52.254;4.490;2023-06-14T08:26:25;101663.66;;;32.02;70.10
31005;BME280;17676;52.254;4.490;2023-06-14T08:28:54;101664.16;;;32.30;62.49
31005;BME280;17676;52.254;4.490;2023-06-14T08:31:20;101667.28;;;31.94;66.33
31005;BME280;17676;52.254;4.490;2023-06-14T08:33:46;101669.25;;;32.11;62.67
31005;BME280;17676;52.254;4.490;2023-06-14T08:36:12;101655.25;;;31.60;62.15
31005;BME280;17676;52.254;4.490;2023-06-14T08:38:38;101655.09;;;31.39;70.94
31005;BME280;17676;52.254;4.490;2023-06-14T08:41:05;101655.72;;;31.27;66.57
31005;BME280;17676;52.254;4.490;2023-06-14T08:43:32;101664.00;;;31.50;65.76
31005;BME280;17676;52.254;4.490;2023-06-14T08:46:00;101661.38;;;31.96;70.35
31005;BME280;17676;52.254;4.490;2023-06-14T08:48:26;101661.31;;;32.38;66.73
31005;BME280;17676;52.254;4.490;2023-06-14T08:50:55;101663.63;;;32.28;62.30
31005;BME280;17676;52.254;4.490;2023-06-14T08:53:28;101669.56;;;32.35;65.93
31005;BME280;17676;52.254;4.490;2023-06-14T08:55:59;101667.59;;;32.27;66.63
31005;BME280;17676;52.254;4.490;2023-06-14T08:58:28;101672.81;;;33.00;62.27
31005;BME280;17676;52.254;4.490;2023-06-14T09:00:57;101671.47;;;33.06;62.70
31005;BME280;17676;52.254;4.490;2023-06-14T09:03:25;101670.13;;;33.03;62.59
31005;BME280;17676;52.254;4.490;2023-06-14T09:05:56;101685.09;;;33.16;54.60
31005;BME280;17676;52.254;4.490;2023-06-14T09:08:26;101673.41;;;32.68;61.28
31005;BME280;17676;52.254;4.490;2023-06-14T09:10:56;101689.28;;;32.64;61.39
31005;BME280;17676;52.254;4.490;2023-06-14T09:13:22;101685.81;;;32.67;57.82
31005;BME280;17676;52.254;4.490;2023-06-14T09:15:48;101683.09;;;32.87;58.96
31005;BME280;17676;52.254;4.490;2023-06-14T09:18:13;101685.13;;;31.90;60.97
31005;BME280;17676;52.254;4.490;2023-06-14T09:20:40;101667.44;;;31.47;65.68
31005;BME280;17676;52.254;4.490;2023-06-14T09:23:06;101681.31;;;31.69;69.64
31005;BME280;17676;52.254;4.490;2023-06-14T09:25:32;101673.22;;;32.35;72.32
31005;BME280;17676;52.254;4.490;2023-06-14T09:27:58;101679.59;;;32.99;62.11
31005;BME280;17676;52.254;4.490;2023-06-14T09:30:24;101672.34;;;33.18;60.45
31005;BME280;17676;52.254;4.490;2023-06-14T09:32:50;101673.28;;;33.31;58.03
31005;BME280;17676;52.254;4.490;2023-06-14T09:35:18;101678.22;;;33.05;55.32
31005;BME280;17676;52.254;4.490;2023-06-14T09:37:46;101670.56;;;32.22;59.30
31005;BME280;17676;52.254;4.490;2023-06-14T09:40:12;101665.97;;;31.92;62.37
31005;BME280;17676;52.254;4.490;2023-06-14T09:42:38;101682.50;;;31.85;62.71
31005;BME280;17676;52.254;4.490;2023-06-14T09:45:06;101674.16;;;32.48;53.46
31005;BME280;17676;52.254;4.490;2023-06-14T09:47:38;101686.03;;;32.45;59.93
31005;BME280;17676;52.254;4.490;2023-06-14T09:50:04;101682.38;;;33.28;49.94
31005;BME280;17676;52.254;4.490;2023-06-14T09:52:30;101679.47;;;32.78;50.99
31005;BME280;17676;52.254;4.490;2023-06-14T09:54:58;101691.31;;;33.30;50.60
31005;BME280;17676;52.254;4.490;2023-06-14T09:57:25;101690.72;;;33.45;45.96
31005;BME280;17676;52.254;4.490;2023-06-14T09:59:56;101677.75;;;33.03;53.15
31005;BME280;17676;52.254;4.490;2023-06-14T10:02:36;101683.41;;;32.40;50.99
31005;BME280;17676;52.254;4.490;2023-06-14T10:05:05;101693.28;;;32.29;49.63
31005;BME280;17676;52.254;4.490;2023-06-14T10:07:53;101685.94;;;32.07;56.60
31005;BME280;17676;52.254;4.490;2023-06-14T10:10:19;101682.75;;;32.43;55.19
31005;BME280;17676;52.254;4.490;2023-06-14T10:12:45;101683.72;;;32.47;54.81
31005;BME280;17676;52.254;4.490;2023-06-14T10:15:18;101687.56;;;32.80;51.49
31005;BME280;17676;52.254;4.490;2023-06-14T10:17:57;101686.03;;;31.42;51.93
31005;BME280;17676;52.254;4.490;2023-06-14T10:20:44;101689.22;;;31.75;56.80
31005;BME280;17676;52.254;4.490;2023-06-14T10:23:18;101679.47;;;30.99;52.82
31005;BME280;17676;52.254;4.490;2023-06-14T10:25:45;101674.69;;;30.91;55.39
31005;BME280;17676;52.254;4.490;2023-06-14T10:28:19;101669.78;;;31.87;53.70
31005;BME280;17676;52.254;4.490;2023-06-14T10:31:08;101682.28;;;31.47;47.21
31005;BME280;17676;52.254;4.490;2023-06-14T10:33:35;101677.34;;;31.78;51.25
31005;BME280;17676;52.254;4.490;2023-06-14T10:36:31;101693.16;;;31.49;48.01
31005;BME280;17676;52.254;4.490;2023-06-14T10:39:07;101665.25;;;31.26;47.92
31005;BME280;17676;52.254;4.490;2023-06-14T10:41:38;101669.75;;;30.88;55.37
31005;BME280;17676;52.254;4.490;2023-06-14T10:47:01;101676.75;;;31.16;51.64
31005;BME280;17676;52.254;4.490;2023-06-14T10:49:41;101693.63;;;31.51;52.99
31005;BME280;17676;52.254;4.490;2023-06-14T10:52:15;101693.59;;;31.42;50.25
31005;BME280;17676;52.254;4.490;2023-06-14T10:57:58;101692.38;;;30.70;48.82
31005;BME280;17676;52.254;4.490;2023-06-14T11:00:27;101690.66;;;30.60;52.25
31005;BME280;17676;52.254;4.490;2023-06-14T11:05:52;101701.88;;;31.56;50.69
31005;BME280;17676;52.254;4.490;2023-06-14T11:11:22;101680.09;;;30.88;46.69
31005;BME280;17676;52.254;4.490;2023-06-14T11:13:49;101685.09;;;30.38;50.23
31005;BME280;17676;52.254;4.490;2023-06-14T11:16:17;101676.63;;;30.82;50.93
31005;BME280;17676;52.254;4.490;2023-06-14T11:18:44;101666.28;;;30.52;47.58
31005;BME280;17676;52.254;4.490;2023-06-14T11:21:11;101666.75;;;30.54;50.65
31005;BME280;17676;52.254;4.490;2023-06-14T11:23:37;101678.69;;;30.68;50.53
31005;BME280;17676;52.254;4.490;2023-06-14T11:26:03;101674.34;;;30.84;49.54
31005;BME280;17676;52.254;4.490;2023-06-14T11:28:39;101662.25;;;30.36;54.32
31005;BME280;17676;52.254;4.490;2023-06-14T11:31:05;101660.47;;;30.18;56.58
31005;BME280;17676;52.254;4.490;2023-06-14T11:33:31;101650.44;;;29.95;61.76
31005;BME280;17676;52.254;4.490;2023-06-14T11:35:57;101661.81;;;29.77;67.68
31005;BME280;17676;52.254;4.490;2023-06-14T11:38:24;101651.41;;;29.55;59.53
31005;BME280;17676;52.254;4.490;2023-06-14T11:40:50;101648.28;;;30.14;60.57
31005;BME280;17676;52.254;4.490;2023-06-14T11:43:16;101652.72;;;29.71;69.12
31005;BME280;17676;52.254;4.490;2023-06-14T11:45:42;101657.31;;;29.18;66.46
31005;BME280;17676;52.254;4.490;2023-06-14T11:48:08;101654.63;;;29.84;64.58
31005;BME280;17676;52.254;4.490;2023-06-14T11:50:37;101649.31;;;29.96;56.48
31005;BME280;17676;52.254;4.490;2023-06-14T11:53:03;101663.03;;;29.35;60.48
31005;BME280;17676;52.254;4.490;2023-06-14T11:55:36;101653.13;;;29.29;67.02
31005;BME280;17676;52.254;4.490;2023-06-14T11:58:03;101660.09;;;29.67;63.86
31005;BME280;17676;52.254;4.490;2023-06-14T12:00:36;101657.91;;;29.64;64.86
31005;BME280;17676;52.254;4.490;2023-06-14T12:03:02;101645.91;;;29.28;70.48
31005;BME280;17676;52.254;4.490;2023-06-14T12:05:28;101644.94;;;28.38;70.55
31005;BME280;17676;52.254;4.490;2023-06-14T12:08:02;101668.81;;;28.44;72.88
31005;BME280;17676;52.254;4.490;2023-06-14T12:10:28;101638.69;;;28.14;77.11
31005;BME280;17676;52.254;4.490;2023-06-14T12:12:59;101653.22;;;28.11;70.03
31005;BME280;17676;52.254;4.490;2023-06-14T12:15:28;101655.81;;;28.53;68.86
31005;BME280;17676;52.254;4.490;2023-06-14T12:17:54;101638.72;;;29.00;68.79
31005;BME280;17676;52.254;4.490;2023-06-14T12:20:22;101644.47;;;29.04;69.24
31005;BME280;17676;52.254;4.490;2023-06-14T12:22:52;101643.81;;;28.39;75.87
31005;BME280;17676;52.254;4.490;2023-06-14T12:25:27;101636.72;;;28.01;73.55
31005;BME280;17676;52.254;4.490;2023-06-14T12:28:03;101637.13;;;28.08;83.48
31005;BME280;17676;52.254;4.490;2023-06-14T12:30:29;101639.66;;;28.23;74.50
31005;BME280;17676;52.254;4.490;2023-06-14T12:32:54;101647.09;;;28.28;76.76
31005;BME280;17676;52.254;4.490;2023-06-14T12:35:20;101656.56;;;28.13;78.39
31005;BME280;17676;52.254;4.490;2023-06-14T12:37:46;101638.97;;;27.99;81.64
31005;BME280;17676;52.254;4.490;2023-06-14T12:40:13;101649.34;;;27.94;80.03
31005;BME280;17676;52.254;4.490;2023-06-14T12:42:39;101667.84;;;28.03;83.04
31005;BME280;17676;52.254;4.490;2023-06-14T12:45:05;101651.78;;;28.14;78.36
31005;BME280;17676;52.254;4.490;2023-06-14T12:47:31;101663.31;;;28.07;78.90
31005;BME280;17676;52.254;4.490;2023-06-14T12:49:57;101664.25;;;27.84;84.82
31005;BME280;17676;52.254;4.490;2023-06-14T12:52:22;101663.56;;;27.92;80.57
31005;BME280;17676;52.254;4.490;2023-06-14T12:54:48;101634.63;;;27.93;81.88
31005;BME280;17676;52.254;4.490;2023-06-14T12:57:14;101653.72;;;27.81;82.35
31005;BME280;17676;52.254;4.490;2023-06-14T12:59:40;101658.84;;;27.74;81.13
31005;BME280;17676;52.254;4.490;2023-06-14T13:02:13;101654.47;;;27.49;81.64
31005;BME280;17676;52.254;4.490;2023-06-14T13:04:38;101650.28;;;27.52;80.27